Time;durP1;ratioP1;P1;durP2;ratioP2;P2;SDS_P1;SDS_P2;PMS_P1;PMS_P2;Temp;Humidity;BMP_temperature;BMP_pressure;BME280_temperature;BME280_humidity;BME280_pressure;Samples;Min_cycle;Max_cycle;Signal;HPM_P1;HPM_P2
2022/03/13 00:00:46;;;;;;;8.82;4.70;;;;;;;;;;6282863;22;20780;-89
2022/03/13 00:03:17;;;;;;;7.97;4.32;;;;;;;;;;6280178;22;20119;-89
2022/03/13 00:05:48;;;;;;;8.05;3.53;;;;;;;;;;6282082;22;20026;-89
2022/03/13 00:08:30;;;;;;;8.77;4.57;;;;;;;;;;6282698;22;20054;-89
2022/03/13 00:11:07;;;;;;;7.90;4.30;;;;;;;;;;6277665;22;20095;-82
2022/03/13 00:13:38;;;;;;;11.02;3.85;;;;;;;;;;6278790;22;20053;-82
2022/03/13 00:16:08;;;;;;;9.10;4.55;;;;;;;;;;6279408;22;20105;-82
2022/03/13 00:18:46;;;;;;;9.30;4.13;;;;;;;;;;6278872;22;20189;-83
2022/03/13 00:21:15;;;;;;;11.70;4.75;;;;;;;;;;6279048;22;20499;-82
2022/03/13 00:23:44;;;;;;;9.68;4.43;;;;;;;;;;6279292;22;20035;-82
2022/03/13 00:26:13;;;;;;;10.15;4.20;;;;;;;;;;6267350;22;20331;-85
2022/03/13 00:28:42;;;;;;;13.77;3.97;;;;;;;;;;6279621;22;20011;-85
2022/03/13 00:31:09;;;;;;;11.00;4.75;;;;;;;;;;6280590;22;20019;-86
2022/03/13 00:33:37;;;;;;;8.13;4.28;;;;;;;;;;6278324;22;20085;-85
2022/03/13 00:36:06;;;;;;;9.80;5.00;;;;;;;;;;6278798;22;20024;-86
2022/03/13 00:38:33;;;;;;;12.63;4.93;;;;;;;;;;6280214;22;20019;-87
2022/03/13 00:41:01;;;;;;;10.25;4.97;;;;;;;;;;6279801;22;20085;-87
2022/03/13 00:43:29;;;;;;;7.85;4.30;;;;;;;;;;6280475;22;20020;-87
2022/03/13 00:45:57;;;;;;;8.23;4.82;;;;;;;;;;6253761;22;20367;-86
2022/03/13 00:48:27;;;;;;;9.63;4.57;;;;;;;;;;6278457;22;20055;-84
2022/03/13 00:50:55;;;;;;;12.25;5.10;;;;;;;;;;6279503;22;20116;-84
2022/03/13 00:53:23;;;;;;;13.60;5.18;;;;;;;;;;6279264;22;20027;-84
2022/03/13 00:55:51;;;;;;;16.83;5.30;;;;;;;;;;6279106;22;20023;-84
2022/03/13 00:58:19;;;;;;;9.25;5.07;;;;;;;;;;6279440;22;20497;-83
2022/03/13 01:00:47;;;;;;;10.27;4.80;;;;;;;;;;6278919;22;20024;-83
2022/03/13 01:03:30;;;;;;;10.65;4.80;;;;;;;;;;6250597;22;20015;-82
2022/03/13 01:05:59;;;;;;;8.35;4.28;;;;;;;;;;6279095;22;20043;-82
2022/03/13 01:08:28;;;;;;;9.68;4.82;;;;;;;;;;6278838;22;20384;-81
2022/03/13 01:10:56;;;;;;;10.25;5.05;;;;;;;;;;6279077;22;20019;-82
2022/03/13 01:13:23;;;;;;;11.48;5.15;;;;;;;;;;6277735;22;20377;-83
2022/03/13 01:15:59;;;;;;;11.80;4.95;;;;;;;;;;6279025;22;20030;-82
2022/03/13 01:18:27;;;;;;;9.45;5.10;;;;;;;;;;6277694;22;20019;-82
2022/03/13 01:20:55;;;;;;;7.75;4.45;;;;;;;;;;6278314;22;20380;-81
2022/03/13 01:23:23;;;;;;;10.70;4.60;;;;;;;;;;6279491;22;20054;-83
2022/03/13 01:26:22;;;;;;;10.45;4.95;;;;;;;;;;6279112;22;20012;-85
2022/03/13 01:28:52;;;;;;;8.60;4.25;;;;;;;;;;6278707;22;20023;-85
2022/03/13 01:31:26;;;;;;;11.32;5.22;;;;;;;;;;6252477;22;20046;-88
2022/03/13 01:33:59;;;;;;;15.15;5.38;;;;;;;;;;6278170;22;20024;-87
2022/03/13 01:36:27;;;;;;;8.35;4.35;;;;;;;;;;6279226;22;20016;-83
2022/03/13 01:38:58;;;;;;;12.13;4.70;;;;;;;;;;6277925;22;20108;-83
2022/03/13 01:41:30;;;;;;;11.90;5.43;;;;;;;;;;6278054;22;20083;-83
2022/03/13 01:43:58;;;;;;;10.75;4.80;;;;;;;;;;6277954;22;20673;-83
2022/03/13 01:46:26;;;;;;;10.10;4.43;;;;;;;;;;6278035;22;20038;-83
2022/03/13 01:49:04;;;;;;;10.18;4.72;;;;;;;;;;6276863;22;20023;-83
2022/03/13 01:51:35;;;;;;;10.23;4.25;;;;;;;;;;6278361;22;20020;-84
2022/03/13 01:54:08;;;;;;;12.82;5.20;;;;;;;;;;6277426;22;20023;-83
2022/03/13 01:56:37;;;;;;;9.82;4.80;;;;;;;;;;6278555;22;20070;-83
2022/03/13 01:59:06;;;;;;;12.07;5.35;;;;;;;;;;6278428;22;20074;-83
2022/03/13 02:01:38;;;;;;;12.05;4.57;;;;;;;;;;6277698;22;20023;-83
2022/03/13 02:04:05;;;;;;;10.68;4.65;;;;;;;;;;6275756;22;20077;-84
2022/03/13 02:06:35;;;;;;;13.30;5.30;;;;;;;;;;6268428;22;20023;-83
2022/03/13 02:09:06;;;;;;;12.63;5.40;;;;;;;;;;6278548;22;20342;-83
2022/03/13 02:11:36;;;;;;;9.55;4.63;;;;;;;;;;6279384;22;20016;-87
2022/03/13 02:14:03;;;;;;;14.98;5.05;;;;;;;;;;6280196;22;20077;-88
2022/03/13 02:16:31;;;;;;;8.43;3.70;;;;;;;;;;6279956;22;20325;-88
2022/03/13 02:18:59;;;;;;;10.15;4.57;;;;;;;;;;6279494;22;20039;-88
2022/03/13 02:21:31;;;;;;;10.38;5.38;;;;;;;;;;6280397;22;20078;-88
2022/03/13 02:24:00;;;;;;;10.80;4.95;;;;;;;;;;6279904;22;20525;-88
2022/03/13 02:26:27;;;;;;;10.00;4.60;;;;;;;;;;6280226;22;20020;-88
2022/03/13 02:28:56;;;;;;;8.77;5.07;;;;;;;;;;6280177;22;20096;-89
2022/03/13 02:31:33;;;;;;;11.02;5.07;;;;;;;;;;6280270;22;20505;-88
2022/03/13 02:34:01;;;;;;;10.90;4.85;;;;;;;;;;6279321;22;20465;-88
2022/03/13 02:36:32;;;;;;;10.27;4.97;;;;;;;;;;6280583;22;20016;-87
2022/03/13 02:39:00;;;;;;;10.00;5.22;;;;;;;;;;6278590;22;20353;-83
2022/03/13 02:41:27;;;;;;;10.60;4.82;;;;;;;;;;6275015;22;20027;-82
2022/03/13 02:43:56;;;;;;;10.10;5.15;;;;;;;;;;6277482;22;20108;-83
2022/03/13 02:46:47;;;;;;;10.50;4.82;;;;;;;;;;6280401;22;20123;-82
2022/03/13 02:49:21;;;;;;;6.88;3.78;;;;;;;;;;6278862;22;20058;-82
2022/03/13 02:51:51;;;;;;;14.13;5.63;;;;;;;;;;6279444;22;20019;-83
2022/03/13 02:54:20;;;;;;;10.32;5.22;;;;;;;;;;6279845;22;20046;-87
2022/03/13 02:56:48;;;;;;;13.48;5.65;;;;;;;;;;6280796;22;20404;-87
2022/03/13 02:59:16;;;;;;;11.75;5.53;;;;;;;;;;6280707;22;20031;-87
2022/03/13 03:01:44;;;;;;;11.50;5.43;;;;;;;;;;6280546;22;20023;-87
2022/03/13 03:04:12;;;;;;;12.20;6.00;;;;;;;;;;6279332;22;20394;-87
2022/03/13 03:07:09;;;;;;;13.90;5.68;;;;;;;;;;6281123;22;20031;-88
2022/03/13 03:09:38;;;;;;;9.13;4.35;;;;;;;;;;6281345;22;20031;-87
2022/03/13 03:12:06;;;;;;;12.88;5.45;;;;;;;;;;6279779;22;20432;-83
2022/03/13 03:14:34;;;;;;;12.30;5.25;;;;;;;;;;6279434;22;20024;-83
2022/03/13 03:17:03;;;;;;;12.23;5.47;;;;;;;;;;6280779;22;20016;-86
2022/03/13 03:19:30;;;;;;;13.32;5.70;;;;;;;;;;6281030;22;20019;-86
2022/03/13 03:21:58;;;;;;;16.00;5.40;;;;;;;;;;6255023;22;20065;-88
2022/03/13 03:24:26;;;;;;;11.82;5.30;;;;;;;;;;6281902;22;20026;-88
2022/03/13 03:26:54;;;;;;;10.60;4.55;;;;;;;;;;6281074;22;20015;-88
2022/03/13 03:29:26;;;;;;;14.52;6.15;;;;;;;;;;6281766;22;20023;-88
2022/03/13 03:31:55;;;;;;;11.43;5.80;;;;;;;;;;6281849;22;20023;-88
2022/03/13 03:34:24;;;;;;;13.60;6.32;;;;;;;;;;6280766;22;20098;-88
2022/03/13 03:36:58;;;;;;;11.75;5.70;;;;;;;;;;6282375;22;20015;-88
2022/03/13 03:39:28;;;;;;;10.07;5.03;;;;;;;;;;6279589;22;20118;-83
2022/03/13 03:41:56;;;;;;;12.25;5.65;;;;;;;;;;6278816;22;20039;-83
2022/03/13 03:44:24;;;;;;;16.63;5.90;;;;;;;;;;6279411;22;20023;-83
2022/03/13 03:46:52;;;;;;;11.70;5.55;;;;;;;;;;6280251;22;20488;-83
2022/03/13 03:49:20;;;;;;;11.88;5.30;;;;;;;;;;6277722;22;20022;-83
2022/03/13 03:51:48;;;;;;;10.77;5.38;;;;;;;;;;6279366;22;20038;-83
2022/03/13 03:54:16;;;;;;;13.23;6.10;;;;;;;;;;6279814;22;20507;-83
2022/03/13 03:56:44;;;;;;;11.98;5.70;;;;;;;;;;6278873;22;20016;-83
2022/03/13 03:59:12;;;;;;;11.98;6.00;;;;;;;;;;6280135;22;20022;-83
2022/03/13 04:01:42;;;;;;;12.90;6.13;;;;;;;;;;6280734;22;20439;-87
2022/03/13 04:04:17;;;;;;;11.30;5.70;;;;;;;;;;6279772;22;20112;-88
2022/03/13 04:06:44;;;;;;;12.98;6.03;;;;;;;;;;6281186;22;20019;-88
2022/03/13 04:09:12;;;;;;;13.52;5.57;;;;;;;;;;6268822;22;20451;-88
2022/03/13 04:11:40;;;;;;;9.07;4.70;;;;;;;;;;6281442;22;20024;-88
2022/03/13 04:14:09;;;;;;;14.30;5.40;;;;;;;;;;6254416;22;20054;-89
2022/03/13 04:16:36;;;;;;;14.65;6.20;;;;;;;;;;6281733;22;20491;-88
2022/03/13 04:19:04;;;;;;;13.60;5.97;;;;;;;;;;6281022;22;20122;-88
2022/03/13 04:21:32;;;;;;;13.15;6.50;;;;;;;;;;6281290;22;20026;-88
2022/03/13 04:24:00;;;;;;;19.73;6.45;;;;;;;;;;6280998;22;20030;-88
2022/03/13 04:26:28;;;;;;;17.42;6.63;;;;;;;;;;6281679;22;20023;-88
2022/03/13 04:28:56;;;;;;;12.15;5.47;;;;;;;;;;6281066;22;20069;-89
2022/03/13 04:31:24;;;;;;;12.93;5.25;;;;;;;;;;6281613;22;20103;-88
2022/03/13 04:33:52;;;;;;;15.80;5.78;;;;;;;;;;6280296;22;20422;-88
2022/03/13 04:36:21;;;;;;;13.98;6.45;;;;;;;;;;6281074;22;20020;-88
2022/03/13 04:38:48;;;;;;;13.80;5.78;;;;;;;;;;6281185;22;20043;-88
2022/03/13 04:41:16;;;;;;;12.55;6.00;;;;;;;;;;6281625;22;20398;-88
2022/03/13 04:43:44;;;;;;;13.95;5.63;;;;;;;;;;6244696;22;20051;-87
2022/03/13 04:46:17;;;;;;;16.13;5.72;;;;;;;;;;6281278;22;20482;-88
2022/03/13 04:48:45;;;;;;;13.38;5.68;;;;;;;;;;6254190;22;20043;-89
2022/03/13 04:51:13;;;;;;;9.70;5.50;;;;;;;;;;6282143;22;20020;-89
2022/03/13 04:53:41;;;;;;;16.10;6.40;;;;;;;;;;6281958;22;20499;-89
2022/03/13 04:56:10;;;;;;;12.70;6.13;;;;;;;;;;6282051;22;20038;-90
2022/03/13 04:58:37;;;;;;;10.57;4.93;;;;;;;;;;6281376;22;20016;-89
2022/03/13 05:01:05;;;;;;;13.55;6.22;;;;;;;;;;6281555;22;20023;-89
2022/03/13 05:03:33;;;;;;;11.93;5.47;;;;;;;;;;6281302;22;20092;-89
2022/03/13 05:06:05;;;;;;;12.68;6.18;;;;;;;;;;6281675;22;20015;-89
2022/03/13 05:08:34;;;;;;;12.32;5.80;;;;;;;;;;6281676;22;20115;-90
2022/03/13 05:11:05;;;;;;;9.57;4.80;;;;;;;;;;6281224;22;20062;-91
2022/03/13 05:13:34;;;;;;;12.05;5.60;;;;;;;;;;6281855;22;20024;-89
2022/03/13 05:16:01;;;;;;;10.45;5.47;;;;;;;;;;6281739;22;20016;-90
2022/03/13 05:18:29;;;;;;;13.45;6.00;;;;;;;;;;6277085;22;20028;-83
2022/03/13 05:20:57;;;;;;;13.82;5.97;;;;;;;;;;6269077;22;20077;-83
2022/03/13 05:23:25;;;;;;;11.75;6.15;;;;;;;;;;6280307;22;20019;-89
2022/03/13 05:25:53;;;;;;;12.10;6.22;;;;;;;;;;6281543;22;20320;-89
2022/03/13 05:28:21;;;;;;;13.73;5.32;;;;;;;;;;6281631;22;20022;-89
2022/03/13 05:30:49;;;;;;;16.63;6.13;;;;;;;;;;6281667;22;20027;-89
2022/03/13 05:33:17;;;;;;;15.30;6.32;;;;;;;;;;6280839;22;20419;-88
2022/03/13 05:35:45;;;;;;;11.85;5.40;;;;;;;;;;6281552;22;20020;-89
2022/03/13 05:38:13;;;;;;;13.15;6.10;;;;;;;;;;6281791;22;20022;-90
2022/03/13 05:40:41;;;;;;;12.32;5.55;;;;;;;;;;6277839;22;20685;-84
2022/03/13 05:43:12;;;;;;;12.88;5.80;;;;;;;;;;6277655;22;20028;-83
2022/03/13 05:45:41;;;;;;;14.15;5.40;;;;;;;;;;6279207;22;20019;-87
2022/03/13 05:48:13;;;;;;;9.68;4.60;;;;;;;;;;6278988;22;20470;-87
2022/03/13 05:50:41;;;;;;;13.68;4.78;;;;;;;;;;6279383;22;20097;-87
2022/03/13 05:53:09;;;;;;;10.43;5.38;;;;;;;;;;6280048;22;20064;-86
2022/03/13 05:55:37;;;;;;;7.72;4.00;;;;;;;;;;6279397;22;20541;-87
2022/03/13 05:58:05;;;;;;;14.57;5.90;;;;;;;;;;6278773;22;20028;-87
2022/03/13 06:00:33;;;;;;;16.45;5.35;;;;;;;;;;6279164;22;20039;-87
2022/03/13 06:03:01;;;;;;;5.35;2.92;;;;;;;;;;6278775;22;20026;-87
2022/03/13 06:05:35;;;;;;;9.68;4.40;;;;;;;;;;6278910;22;20043;-87
2022/03/13 06:08:03;;;;;;;8.38;4.50;;;;;;;;;;6278062;22;20119;-83
2022/03/13 06:10:31;;;;;;;9.25;4.38;;;;;;;;;;6278230;22;20026;-83
2022/03/13 06:12:59;;;;;;;14.25;5.63;;;;;;;;;;6278156;22;20019;-84
2022/03/13 06:15:29;;;;;;;8.77;5.18;;;;;;;;;;6277863;22;20393;-84
2022/03/13 06:17:58;;;;;;;12.40;5.60;;;;;;;;;;6276465;22;20024;-83
2022/03/13 06:20:25;;;;;;;6.35;3.30;;;;;;;;;;6278412;22;20015;-83
2022/03/13 06:22:53;;;;;;;8.73;3.75;;;;;;;;;;6279140;22;20074;-83
2022/03/13 06:25:21;;;;;;;16.25;6.70;;;;;;;;;;6278984;22;20055;-83
2022/03/13 06:27:49;;;;;;;9.23;4.80;;;;;;;;;;6278447;22;20024;-83
2022/03/13 06:30:19;;;;;;;11.10;5.18;;;;;;;;;;6278778;22;20021;-83
2022/03/13 06:32:51;;;;;;;15.32;5.18;;;;;;;;;;6276461;22;20015;-83
2022/03/13 06:35:21;;;;;;;6.20;3.10;;;;;;;;;;6278951;22;20024;-83
2022/03/13 06:37:52;;;;;;;10.52;4.90;;;;;;;;;;6277518;22;20015;-83
2022/03/13 06:40:22;;;;;;;15.38;5.15;;;;;;;;;;6278435;22;20023;-83
2022/03/13 06:42:51;;;;;;;7.72;4.07;;;;;;;;;;6278800;22;20031;-82
2022/03/13 06:45:22;;;;;;;12.18;5.53;;;;;;;;;;6279061;22;20015;-83
2022/03/13 06:47:50;;;;;;;8.02;2.75;;;;;;;;;;6277613;22;20066;-83
2022/03/13 06:50:20;;;;;;;11.13;5.20;;;;;;;;;;6278315;22;20020;-83
2022/03/13 06:52:49;;;;;;;11.60;5.40;;;;;;;;;;6277915;22;20016;-83
2022/03/13 06:55:21;;;;;;;6.07;3.95;;;;;;;;;;6279074;22;20034;-83
2022/03/13 06:57:50;;;;;;;12.43;4.63;;;;;;;;;;6277520;22;20095;-82
2022/03/13 07:00:18;;;;;;;13.05;6.07;;;;;;;;;;6278527;22;20035;-83
2022/03/13 07:02:49;;;;;;;11.38;5.25;;;;;;;;;;6275882;22;20035;-83
2022/03/13 07:05:19;;;;;;;13.60;6.15;;;;;;;;;;6278151;22;20130;-83
2022/03/13 07:07:47;;;;;;;11.10;4.57;;;;;;;;;;6277960;22;20019;-83
2022/03/13 07:10:15;;;;;;;7.75;3.50;;;;;;;;;;6277479;22;20024;-83
2022/03/13 07:12:44;;;;;;;9.93;3.65;;;;;;;;;;6277046;22;20442;-83
2022/03/13 07:15:13;;;;;;;9.93;4.80;;;;;;;;;;6277974;22;20035;-83
2022/03/13 07:17:43;;;;;;;10.45;4.43;;;;;;;;;;6276789;22;20012;-84
2022/03/13 07:20:13;;;;;;;9.75;4.95;;;;;;;;;;6265246;22;20131;-83
2022/03/13 07:22:43;;;;;;;13.45;5.65;;;;;;;;;;6275877;22;20043;-84
2022/03/13 07:25:13;;;;;;;10.55;4.25;;;;;;;;;;6276544;22;20019;-83
2022/03/13 07:27:39;;;;;;;13.52;5.53;;;;;;;;;;6277917;22;20026;-84
2022/03/13 07:30:13;;;;;;;10.90;5.75;;;;;;;;;;6251439;22;20387;-84
2022/03/13 07:32:42;;;;;;;8.90;3.55;;;;;;;;;;6277642;22;20491;-84
2022/03/13 07:35:12;;;;;;;13.32;5.32;;;;;;;;;;6280512;22;20431;-84
2022/03/13 07:37:43;;;;;;;12.07;5.72;;;;;;;;;;6278913;22;20020;-83
2022/03/13 07:40:11;;;;;;;9.40;5.35;;;;;;;;;;6278834;22;20023;-83
2022/03/13 07:42:39;;;;;;;10.40;5.65;;;;;;;;;;6270624;22;20541;-84
2022/03/13 07:45:09;;;;;;;15.45;4.97;;;;;;;;;;6278812;22;20011;-83
2022/03/13 07:47:37;;;;;;;11.32;4.90;;;;;;;;;;6277468;22;20362;-84
2022/03/13 07:50:05;;;;;;;11.40;5.15;;;;;;;;;;6279002;22;20073;-83
2022/03/13 07:52:33;;;;;;;12.50;5.30;;;;;;;;;;6279955;22;20019;-83
2022/03/13 07:55:01;;;;;;;12.85;5.40;;;;;;;;;;6280693;22;20502;-81
2022/03/13 07:57:28;;;;;;;11.88;5.22;;;;;;;;;;6278124;22;20028;-81
2022/03/13 07:59:57;;;;;;;10.82;4.97;;;;;;;;;;6279810;22;20016;-82
2022/03/13 08:02:25;;;;;;;10.80;4.75;;;;;;;;;;6280678;22;20019;-81
2022/03/13 08:04:53;;;;;;;8.75;4.40;;;;;;;;;;6278668;22;20123;-81
2022/03/13 08:07:21;;;;;;;13.50;4.57;;;;;;;;;;6278727;22;20102;-81
2022/03/13 08:09:49;;;;;;;13.40;5.93;;;;;;;;;;6251543;22;20810;-81
2022/03/13 08:12:17;;;;;;;15.30;5.93;;;;;;;;;;6278108;22;20685;-81
2022/03/13 08:14:45;;;;;;;11.63;5.15;;;;;;;;;;6278826;22;20034;-83
2022/03/13 08:17:15;;;;;;;12.00;5.15;;;;;;;;;;6283324;22;20023;-83
2022/03/13 08:19:43;;;;;;;13.85;5.28;;;;;;;;;;6284277;22;20023;-83
2022/03/13 08:22:11;;;;;;;5.78;2.92;;;;;;;;;;6282732;22;20026;-83
2022/03/13 08:24:40;;;;;;;13.88;6.13;;;;;;;;;;6281357;22;20685;-83
2022/03/13 08:27:09;;;;;;;8.60;5.13;;;;;;;;;;6282820;22;20012;-83
2022/03/13 08:29:37;;;;;;;9.85;5.05;;;;;;;;;;6280667;22;20019;-84
2022/03/13 08:32:05;;;;;;;9.65;4.47;;;;;;;;;;6279840;22;20038;-83
2022/03/13 08:34:33;;;;;;;12.00;5.35;;;;;;;;;;6279820;22;20023;-83
2022/03/13 08:37:03;;;;;;;16.15;5.55;;;;;;;;;;6280824;22;20019;-83
2022/03/13 08:39:31;;;;;;;10.57;4.88;;;;;;;;;;6279950;22;20050;-84
2022/03/13 08:41:59;;;;;;;13.55;5.32;;;;;;;;;;6281114;22;20518;-83
2022/03/13 08:44:27;;;;;;;13.50;5.38;;;;;;;;;;6281392;22;20020;-83
2022/03/13 08:46:55;;;;;;;9.40;4.90;;;;;;;;;;6280756;22;20030;-83
2022/03/13 08:49:23;;;;;;;16.55;5.45;;;;;;;;;;6277291;22;20492;-83
2022/03/13 08:51:51;;;;;;;10.43;5.43;;;;;;;;;;6280498;22;20023;-83
2022/03/13 08:54:21;;;;;;;9.50;5.00;;;;;;;;;;6271216;22;20020;-83
2022/03/13 08:56:49;;;;;;;11.98;5.80;;;;;;;;;;6279310;22;20061;-83
2022/03/13 08:59:20;;;;;;;10.48;5.22;;;;;;;;;;6278787;22;20062;-83
2022/03/13 09:01:53;;;;;;;13.18;5.90;;;;;;;;;;6279196;22;20019;-83
2022/03/13 09:04:21;;;;;;;8.68;5.10;;;;;;;;;;6278047;22;20069;-82
2022/03/13 09:06:49;;;;;;;7.40;3.58;;;;;;;;;;6279468;22;20015;-82
2022/03/13 09:09:19;;;;;;;12.95;5.22;;;;;;;;;;6278754;22;20397;-82
2022/03/13 09:11:47;;;;;;;9.25;4.75;;;;;;;;;;6278877;22;20043;-82
2022/03/13 09:14:15;;;;;;;8.88;4.85;;;;;;;;;;6277952;22;20123;-82
2022/03/13 09:16:45;;;;;;;11.73;5.50;;;;;;;;;;6278430;22;20015;-83
2022/03/13 09:19:15;;;;;;;10.55;5.50;;;;;;;;;;6277511;22;20015;-83
2022/03/13 09:21:44;;;;;;;10.20;4.95;;;;;;;;;;6281236;22;20116;-83
2022/03/13 09:24:11;;;;;;;9.18;4.80;;;;;;;;;;6278929;22;20020;-83
2022/03/13 09:26:43;;;;;;;10.10;5.38;;;;;;;;;;6278471;22;20016;-83
2022/03/13 09:29:11;;;;;;;11.55;5.45;;;;;;;;;;6278241;22;20335;-83
2022/03/13 09:31:39;;;;;;;11.15;5.68;;;;;;;;;;6279025;22;20050;-83
2022/03/13 09:34:07;;;;;;;10.20;5.00;;;;;;;;;;6277108;22;20024;-83
2022/03/13 09:36:37;;;;;;;12.77;5.47;;;;;;;;;;6278316;22;20562;-83
2022/03/13 09:39:05;;;;;;;9.70;5.47;;;;;;;;;;6277593;22;20123;-83
2022/03/13 09:41:34;;;;;;;12.50;5.18;;;;;;;;;;6278653;22;20502;-83
2022/03/13 09:44:01;;;;;;;11.57;5.75;;;;;;;;;;6268522;22;20016;-83
2022/03/13 09:46:29;;;;;;;11.40;5.70;;;;;;;;;;6277849;22;20020;-83
2022/03/13 09:48:57;;;;;;;7.32;4.03;;;;;;;;;;6276507;22;20022;-82
2022/03/13 09:51:27;;;;;;;7.93;4.30;;;;;;;;;;6280685;22;20016;-84
2022/03/13 09:53:55;;;;;;;13.75;5.70;;;;;;;;;;6281032;22;20604;-84
2022/03/13 09:56:23;;;;;;;9.77;4.30;;;;;;;;;;6279302;22;20046;-84
2022/03/13 09:58:51;;;;;;;12.40;5.50;;;;;;;;;;6281400;22;20027;-84
2022/03/13 10:01:19;;;;;;;10.63;4.85;;;;;;;;;;6252938;22;20111;-85
2022/03/13 10:03:47;;;;;;;10.52;5.05;;;;;;;;;;6247149;22;20102;-84
2022/03/13 10:06:15;;;;;;;10.18;5.80;;;;;;;;;;6276465;22;20106;-86
2022/03/13 10:08:45;;;;;;;8.82;4.60;;;;;;;;;;6279174;22;20102;-81
2022/03/13 10:11:13;;;;;;;10.18;4.88;;;;;;;;;;6275335;22;20102;-84
2022/03/13 10:13:45;;;;;;;10.00;5.60;;;;;;;;;;6277039;22;20623;-84
2022/03/13 10:16:21;;;;;;;11.02;6.03;;;;;;;;;;6277962;22;20039;-84
2022/03/13 10:18:49;;;;;;;10.93;5.75;;;;;;;;;;6276688;22;20098;-84
2022/03/13 10:21:17;;;;;;;11.25;5.72;;;;;;;;;;6277667;22;20493;-84
2022/03/13 10:23:47;;;;;;;12.10;5.88;;;;;;;;;;6276725;22;20026;-84
2022/03/13 10:26:17;;;;;;;11.23;5.22;;;;;;;;;;6277268;22;20026;-84
2022/03/13 10:28:45;;;;;;;12.02;6.10;;;;;;;;;;6277442;22;20015;-84
2022/03/13 10:31:17;;;;;;;11.50;5.80;;;;;;;;;;6278273;22;20024;-84
2022/03/13 10:33:55;;;;;;;12.48;5.85;;;;;;;;;;6284387;22;20026;-85
2022/03/13 10:36:37;;;;;;;9.85;5.28;;;;;;;;;;6277865;22;20046;-84
2022/03/13 10:39:17;;;;;;;12.20;5.28;;;;;;;;;;6277282;22;20024;-84
2022/03/13 10:41:47;;;;;;;12.63;5.65;;;;;;;;;;6277197;22;20024;-83
2022/03/13 10:44:16;;;;;;;8.43;5.03;;;;;;;;;;6279689;22;20040;-83
2022/03/13 10:46:48;;;;;;;10.75;5.65;;;;;;;;;;6281299;22;20027;-83
2022/03/13 10:49:50;;;;;;;13.93;5.70;;;;;;;;;;6277969;22;20023;-83
2022/03/13 10:52:31;;;;;;;11.70;5.47;;;;;;;;;;6280519;22;20074;-86
2022/03/13 10:55:22;;;;;;;9.45;5.18;;;;;;;;;;6281657;22;20020;-84
2022/03/13 10:57:55;;;;;;;3.33;2.10;;;;;;;;;;6278444;22;20024;-84
2022/03/13 11:00:23;;;;;;;9.95;5.47;;;;;;;;;;6278248;22;20034;-84
2022/03/13 11:02:51;;;;;;;9.70;5.25;;;;;;;;;;6275626;22;20451;-85
2022/03/13 11:05:20;;;;;;;11.43;6.20;;;;;;;;;;6277259;22;20024;-84
2022/03/13 11:07:53;;;;;;;9.20;5.25;;;;;;;;;;6279058;22;20030;-83
2022/03/13 11:10:21;;;;;;;9.10;4.25;;;;;;;;;;6284037;22;20016;-84
2022/03/13 11:12:51;;;;;;;12.00;4.97;;;;;;;;;;6279835;22;20035;-83
2022/03/13 11:15:20;;;;;;;9.88;5.78;;;;;;;;;;6281746;22;20435;-83
2022/03/13 11:17:48;;;;;;;10.30;5.22;;;;;;;;;;6277675;22;20082;-84
2022/03/13 11:20:18;;;;;;;7.00;4.25;;;;;;;;;;6280779;22;20047;-84
2022/03/13 11:22:45;;;;;;;11.48;5.75;;;;;;;;;;6279235;22;20107;-83
2022/03/13 11:25:16;;;;;;;8.77;4.28;;;;;;;;;;6277128;22;20031;-83
2022/03/13 11:27:45;;;;;;;6.57;3.05;;;;;;;;;;6277250;22;20019;-83
2022/03/13 11:30:15;;;;;;;10.10;3.35;;;;;;;;;;6276889;22;20019;-83
2022/03/13 11:32:46;;;;;;;9.27;5.20;;;;;;;;;;6267858;22;20083;-83
2022/03/13 11:35:14;;;;;;;10.85;6.05;;;;;;;;;;6279374;22;20100;-83
2022/03/13 11:37:48;;;;;;;8.70;5.05;;;;;;;;;;6277938;22;20419;-83
2022/03/13 11:40:30;;;;;;;9.98;5.60;;;;;;;;;;6277628;22;20098;-84
2022/03/13 11:43:08;;;;;;;12.25;5.63;;;;;;;;;;6279032;22;20025;-84
2022/03/13 11:45:39;;;;;;;10.35;5.30;;;;;;;;;;6278600;22;20102;-84
2022/03/13 11:48:19;;;;;;;7.60;3.58;;;;;;;;;;6278991;22;20012;-84
2022/03/13 11:50:58;;;;;;;11.23;5.57;;;;;;;;;;6279302;22;20091;-84
2022/03/13 11:53:28;;;;;;;12.77;5.55;;;;;;;;;;6279555;22;20444;-84
2022/03/13 11:56:26;;;;;;;11.65;6.30;;;;;;;;;;6279663;22;20078;-84
2022/03/13 11:59:15;;;;;;;9.57;5.70;;;;;;;;;;6277172;22;20011;-83
2022/03/13 12:01:44;;;;;;;10.88;5.15;;;;;;;;;;6279870;22;20016;-83
2022/03/13 12:04:14;;;;;;;11.02;4.78;;;;;;;;;;6277482;22;20103;-83
2022/03/13 12:06:43;;;;;;;8.75;5.10;;;;;;;;;;6278933;22;20051;-83
2022/03/13 12:09:12;;;;;;;8.98;5.18;;;;;;;;;;6279337;22;20019;-83
2022/03/13 12:11:43;;;;;;;10.50;5.18;;;;;;;;;;6279204;22;20278;-83
2022/03/13 12:14:14;;;;;;;10.45;5.10;;;;;;;;;;6279844;22;20428;-83
2022/03/13 12:16:43;;;;;;;10.18;5.50;;;;;;;;;;6280009;22;20436;-83
2022/03/13 12:19:12;;;;;;;8.90;5.05;;;;;;;;;;6277990;22;20016;-86
2022/03/13 12:21:46;;;;;;;8.57;4.60;;;;;;;;;;6280220;22;20051;-86
2022/03/13 12:24:15;;;;;;;8.93;4.43;;;;;;;;;;6279055;22;20019;-87
2022/03/13 12:26:45;;;;;;;9.13;5.00;;;;;;;;;;6279005;22;20030;-84
2022/03/13 12:29:17;;;;;;;9.05;5.18;;;;;;;;;;6251521;22;20019;-84
2022/03/13 12:31:50;;;;;;;8.25;4.68;;;;;;;;;;6276673;22;20016;-84
2022/03/13 12:34:25;;;;;;;6.63;3.80;;;;;;;;;;6277143;22;20011;-83
2022/03/13 12:36:54;;;;;;;9.27;4.93;;;;;;;;;;6278593;22;20042;-84
2022/03/13 12:39:22;;;;;;;8.48;4.53;;;;;;;;;;6276134;22;20008;-83
2022/03/13 12:41:58;;;;;;;6.63;3.28;;;;;;;;;;6246998;22;20024;-84
2022/03/13 12:44:33;;;;;;;9.27;4.82;;;;;;;;;;6279739;22;20047;-83
2022/03/13 12:46:59;;;;;;;6.22;4.30;;;;;;;;;;6280782;22;20023;-84
2022/03/13 12:49:30;;;;;;;8.73;4.55;;;;;;;;;;6278372;22;20007;-85
2022/03/13 12:51:58;;;;;;;8.82;4.25;;;;;;;;;;6279354;22;20050;-83
2022/03/13 12:54:28;;;;;;;8.30;4.63;;;;;;;;;;6279932;22;20042;-83
2022/03/13 12:57:04;;;;;;;8.20;4.68;;;;;;;;;;6280116;22;20020;-84
2022/03/13 12:59:36;;;;;;;10.48;4.70;;;;;;;;;;6278840;22;20020;-83
2022/03/13 13:02:31;;;;;;;10.30;4.80;;;;;;;;;;6278979;22;20093;-83
2022/03/13 13:05:04;;;;;;;9.82;4.35;;;;;;;;;;6279791;22;20019;-83
2022/03/13 13:07:39;;;;;;;8.50;4.32;;;;;;;;;;6279580;22;20020;-83
2022/03/13 13:10:11;;;;;;;6.50;4.25;;;;;;;;;;6279939;22;20335;-83
2022/03/13 13:12:40;;;;;;;9.10;4.53;;;;;;;;;;6277847;22;20024;-83
2022/03/13 13:15:12;;;;;;;8.50;5.13;;;;;;;;;;6278554;22;20026;-83
2022/03/13 13:17:42;;;;;;;9.38;4.32;;;;;;;;;;6278701;22;20534;-83
2022/03/13 13:20:24;;;;;;;9.52;4.47;;;;;;;;;;6279323;22;20102;-82
2022/03/13 13:23:09;;;;;;;7.15;4.15;;;;;;;;;;6279503;22;20020;-82
2022/03/13 13:25:37;;;;;;;9.32;4.65;;;;;;;;;;6279968;22;20026;-83
2022/03/13 13:28:10;;;;;;;7.97;4.72;;;;;;;;;;6280447;22;20060;-83
2022/03/13 13:30:40;;;;;;;11.38;4.97;;;;;;;;;;6279665;22;20051;-83
2022/03/13 13:33:15;;;;;;;7.78;4.50;;;;;;;;;;6278578;22;20078;-83
2022/03/13 13:35:46;;;;;;;7.80;4.05;;;;;;;;;;6279334;22;20023;-84
2022/03/13 13:38:27;;;;;;;8.80;4.60;;;;;;;;;;6268140;22;20015;-84
2022/03/13 13:40:55;;;;;;;8.15;3.95;;;;;;;;;;6268847;22;20020;-84
2022/03/13 13:43:22;;;;;;;9.30;5.03;;;;;;;;;;6277952;22;20118;-84
2022/03/13 13:46:01;;;;;;;8.18;4.22;;;;;;;;;;6278252;22;20023;-84
2022/03/13 13:48:38;;;;;;;4.40;2.58;;;;;;;;;;6276624;22;20091;-84
2022/03/13 13:51:20;;;;;;;9.23;4.22;;;;;;;;;;6278785;22;20103;-84
2022/03/13 13:54:14;;;;;;;7.53;3.45;;;;;;;;;;6278358;22;20098;-84
2022/03/13 13:56:51;;;;;;;10.20;4.85;;;;;;;;;;6277699;22;20329;-84
2022/03/13 13:59:30;;;;;;;7.55;3.47;;;;;;;;;;6278944;22;20099;-84
2022/03/13 14:02:08;;;;;;;9.60;4.70;;;;;;;;;;6276018;22;20130;-84
2022/03/13 14:04:40;;;;;;;7.68;4.75;;;;;;;;;;6276936;22;20019;-84
2022/03/13 14:07:09;;;;;;;8.23;4.28;;;;;;;;;;6277946;22;20046;-84
2022/03/13 14:09:38;;;;;;;8.27;3.50;;;;;;;;;;6278762;22;20061;-83
2022/03/13 14:12:08;;;;;;;5.95;3.17;;;;;;;;;;6278648;22;20023;-83
2022/03/13 14:14:36;;;;;;;9.82;4.78;;;;;;;;;;6278332;22;20023;-83
2022/03/13 14:17:04;;;;;;;7.82;3.67;;;;;;;;;;6277783;22;20152;-83
2022/03/13 14:19:34;;;;;;;10.90;4.82;;;;;;;;;;6276967;22;20019;-84
2022/03/13 14:22:03;;;;;;;8.43;4.53;;;;;;;;;;6277662;22;20057;-83
2022/03/13 14:24:33;;;;;;;11.27;5.30;;;;;;;;;;6277539;22;20025;-83
2022/03/13 14:27:01;;;;;;;9.88;4.85;;;;;;;;;;6278302;22;20020;-83
2022/03/13 14:29:28;;;;;;;7.25;3.50;;;;;;;;;;6278070;22;20016;-83
2022/03/13 14:31:58;;;;;;;9.00;4.70;;;;;;;;;;6278118;22;20156;-83
2022/03/13 14:34:26;;;;;;;9.20;4.78;;;;;;;;;;6275022;22;20024;-82
2022/03/13 14:36:58;;;;;;;8.07;5.05;;;;;;;;;;6277303;22;20019;-85
2022/03/13 14:39:27;;;;;;;8.75;4.72;;;;;;;;;;6277987;22;20019;-83
2022/03/13 14:41:56;;;;;;;9.77;4.90;;;;;;;;;;6278125;22;20296;-84
2022/03/13 14:44:25;;;;;;;9.18;5.03;;;;;;;;;;6280419;22;20042;-84
2022/03/13 14:46:52;;;;;;;8.50;5.20;;;;;;;;;;6280048;22;20020;-84
2022/03/13 14:49:20;;;;;;;11.57;5.13;;;;;;;;;;6278784;22;20501;-84
2022/03/13 14:51:48;;;;;;;9.30;4.80;;;;;;;;;;6279851;22;20023;-84
2022/03/13 14:54:16;;;;;;;8.48;4.72;;;;;;;;;;6279485;22;20133;-84